createdAt,value
2022-09-10T00:01:37.110Z,87.00
2022-09-10T00:04:11.623Z,86.70
2022-09-10T00:06:39.633Z,87.00
2022-09-10T00:09:07.569Z,87.10
2022-09-10T00:11:38.634Z,87.70
2022-09-10T00:14:08.255Z,87.50
2022-09-10T00:16:35.627Z,87.00
2022-09-10T00:19:04.522Z,86.70
2022-09-10T00:21:32.045Z,87.00
2022-09-10T00:24:00.928Z,86.90
2022-09-10T00:26:38.337Z,86.80
2022-09-10T00:29:12.528Z,87.00
2022-09-10T00:31:40.160Z,87.30
2022-09-10T00:34:09.148Z,88.00
2022-09-10T00:36:42.251Z,87.90
2022-09-10T00:39:14.985Z,87.70
2022-09-10T00:41:46.837Z,87.50
2022-09-10T00:44:42.074Z,87.60
2022-09-10T00:47:25.670Z,87.80
2022-09-10T00:50:18.019Z,87.80
2022-09-10T00:52:47.587Z,88.20
2022-09-10T00:55:15.511Z,88.40
2022-09-10T00:57:46.260Z,88.30
2022-09-10T01:00:15.205Z,87.80
2022-09-10T01:02:43.460Z,87.30
2022-09-10T01:05:13.524Z,87.80
2022-09-10T01:07:41.314Z,85.90
2022-09-10T01:10:32.577Z,85.30
2022-09-10T01:13:33.241Z,84.70
2022-09-10T01:16:22.751Z,84.90
2022-09-10T01:19:32.885Z,84.60
2022-09-10T01:22:28.747Z,85.00
2022-09-10T01:25:56.246Z,84.00
2022-09-10T01:29:01.245Z,84.10
2022-09-10T01:31:51.899Z,84.50
2022-09-10T01:34:41.851Z,84.10
2022-09-10T01:37:17.362Z,83.50
2022-09-10T01:39:47.432Z,83.70
2022-09-10T01:42:15.352Z,83.60
2022-09-10T01:44:45.564Z,82.90
2022-09-10T01:47:38.886Z,83.10
2022-09-10T01:50:30.147Z,83.30
2022-09-10T01:53:12.210Z,83.70
2022-09-10T01:56:03.076Z,83.20
2022-09-10T01:58:37.592Z,83.00
2022-09-10T02:01:16.666Z,83.40
2022-09-10T02:03:48.279Z,83.50
2022-09-10T02:06:20.392Z,83.90
2022-09-10T02:08:52.861Z,84.10
2022-09-10T02:11:21.498Z,84.30
2022-09-10T02:13:49.353Z,84.10
2022-09-10T02:16:33.444Z,83.90
2022-09-10T02:19:03.090Z,83.80
2022-09-10T02:21:33.545Z,83.90
2022-09-10T02:24:11.441Z,83.80
2022-09-10T02:26:43.717Z,84.00
2022-09-10T02:29:15.396Z,84.30
2022-09-10T02:31:44.099Z,84.60
2022-09-10T02:34:11.503Z,84.90
2022-09-10T02:36:38.846Z,85.50
2022-09-10T02:39:08.037Z,85.80
2022-09-10T02:41:35.489Z,85.90
2022-09-10T02:44:03.952Z,85.70
2022-09-10T02:46:31.870Z,85.30
2022-09-10T02:48:59.218Z,85.20
2022-09-10T02:51:26.470Z,84.80
2022-09-10T02:53:55.759Z,84.40
2022-09-10T02:56:23.875Z,84.80
2022-09-10T02:58:51.694Z,84.50
2022-09-10T03:01:22.202Z,84.60
2022-09-10T03:03:55.166Z,84.80
2022-09-10T03:06:25.068Z,84.40
2022-09-10T03:08:55.393Z,84.50
2022-09-10T03:11:24.061Z,84.60
2022-09-10T03:13:51.535Z,85.00
2022-09-10T03:16:19.111Z,85.40
2022-09-10T03:18:47.145Z,86.00
2022-09-10T03:21:21.053Z,86.20
2022-09-10T03:23:52.217Z,86.50
2022-09-10T03:26:21.633Z,86.50
2022-09-10T03:28:50.221Z,86.90
2022-09-10T03:31:18.324Z,86.90
2022-09-10T03:33:46.363Z,86.90
2022-09-10T03:36:13.710Z,86.40
2022-09-10T03:38:41.763Z,86.40
2022-09-10T03:41:09.531Z,86.70
2022-09-10T03:43:37.483Z,86.70
2022-09-10T03:46:05.556Z,86.90
2022-09-10T03:48:33.171Z,86.80
2022-09-10T03:51:00.491Z,86.80
2022-09-10T03:53:27.981Z,87.20
2022-09-10T03:55:55.806Z,87.20
2022-09-10T03:58:23.438Z,87.40
2022-09-10T04:00:52.915Z,87.50
2022-09-10T04:03:20.560Z,87.60
2022-09-10T04:05:47.894Z,88.00
2022-09-10T04:08:15.644Z,88.30
2022-09-10T04:10:47.425Z,88.40
2022-09-10T04:13:15.287Z,88.60
2022-09-10T04:15:46.257Z,88.70
2022-09-10T04:18:14.622Z,88.90
2022-09-10T04:20:43.610Z,88.90
2022-09-10T04:23:11.168Z,88.70
2022-09-10T04:25:38.630Z,88.60
2022-09-10T04:28:05.889Z,88.80
2022-09-10T04:30:33.314Z,89.20
2022-09-10T04:33:00.827Z,89.50
2022-09-10T04:35:27.975Z,89.70
2022-09-10T04:37:55.199Z,90.00
2022-09-10T04:40:22.468Z,90.10
2022-09-10T04:42:49.759Z,90.20
2022-09-10T04:45:16.982Z,90.40
2022-09-10T04:47:48.854Z,90.40
2022-09-10T04:50:16.229Z,90.20
2022-09-10T04:52:43.587Z,90.40
2022-09-10T04:55:11.997Z,90.30
2022-09-10T04:57:39.366Z,90.10
2022-09-10T05:00:08.866Z,90.10
2022-09-10T05:02:37.659Z,90.00
2022-09-10T05:05:05.541Z,89.80
2022-09-10T05:07:32.829Z,89.80
2022-09-10T05:10:00.060Z,90.00
2022-09-10T05:12:27.378Z,89.50
2022-09-10T05:14:55.272Z,89.30
2022-09-10T05:17:22.682Z,88.60
2022-09-10T05:19:49.951Z,88.40
2022-09-10T05:22:17.242Z,88.30
2022-09-10T05:24:44.499Z,87.40
2022-09-10T05:27:11.777Z,87.20
2022-09-10T05:29:41.843Z,86.60
2022-09-10T05:32:13.405Z,85.80
2022-09-10T05:34:40.664Z,85.20
2022-09-10T05:37:08.938Z,84.20
2022-09-10T05:39:36.269Z,82.70
2022-09-10T05:42:03.956Z,81.80
2022-09-10T05:44:31.170Z,81.00
2022-09-10T05:46:58.414Z,80.60
2022-09-10T05:49:26.595Z,80.30
2022-09-10T05:51:53.807Z,79.70
2022-09-10T05:54:21.020Z,78.90
2022-09-10T05:56:48.803Z,78.30
2022-09-10T05:59:17.552Z,78.10
2022-09-10T06:01:44.981Z,77.90
2022-09-10T06:04:12.217Z,77.80
2022-09-10T06:06:40.009Z,77.80
2022-09-10T06:09:07.309Z,77.90
2022-09-10T06:11:34.643Z,77.40
2022-09-10T06:14:01.873Z,77.10
2022-09-10T06:16:29.282Z,76.70
2022-09-10T06:18:59.744Z,76.40
2022-09-10T06:21:29.380Z,76.30
2022-09-10T06:23:57.871Z,75.10
2022-09-10T06:26:26.135Z,75.10
2022-09-10T06:28:56.889Z,74.80
2022-09-10T06:31:24.299Z,74.00
2022-09-10T06:33:51.586Z,73.10
2022-09-10T06:36:18.790Z,72.30
2022-09-10T06:38:46.060Z,71.70
2022-09-10T06:41:16.148Z,70.30
2022-09-10T06:43:43.833Z,69.50
2022-09-10T06:46:54.942Z,69.70
2022-09-10T06:49:07.517Z,69.90
2022-09-10T06:51:34.979Z,71.10
2022-09-10T06:54:02.912Z,70.90
2022-09-10T06:56:30.324Z,71.50
2022-09-10T06:59:00.375Z,71.90
2022-09-10T07:01:30.123Z,72.40
2022-09-10T07:04:00.086Z,72.60
2022-09-10T07:06:29.040Z,72.90
2022-09-10T07:08:58.212Z,73.30
2022-09-10T07:11:28.856Z,73.10
2022-09-10T07:13:56.351Z,73.30
2022-09-10T07:16:26.793Z,73.50
2022-09-10T07:18:58.733Z,73.30
2022-09-10T07:21:28.033Z,73.20
2022-09-10T07:24:03.403Z,72.70
2022-09-10T07:26:31.474Z,72.10
2022-09-10T07:28:59.847Z,71.10
2022-09-10T07:31:31.144Z,70.10
2022-09-10T07:34:01.572Z,69.80
2022-09-10T07:36:29.726Z,68.70
2022-09-10T07:38:59.932Z,67.90
2022-09-10T07:41:30.044Z,67.70
2022-09-10T07:43:58.681Z,67.90
2022-09-10T07:46:28.031Z,68.10
2022-09-10T07:48:58.664Z,68.30
2022-09-10T07:51:29.867Z,68.30
2022-09-10T07:53:59.281Z,68.70
2022-09-10T07:56:27.227Z,68.80
2022-09-10T07:58:57.042Z,68.90
2022-09-10T08:01:24.313Z,68.70
2022-09-10T08:03:51.643Z,68.10
2022-09-10T08:06:19.487Z,67.00
2022-09-10T08:08:46.837Z,65.60
2022-09-10T08:11:17.969Z,65.10
2022-09-10T08:13:50.563Z,65.10
2022-09-10T08:16:23.101Z,64.60
2022-09-10T08:18:51.575Z,63.60
2022-09-10T08:21:20.042Z,63.30
2022-09-10T08:23:54.067Z,62.60
2022-09-10T08:26:24.397Z,62.60
2022-09-10T08:28:57.900Z,62.00
2022-09-10T08:31:26.685Z,62.10
2022-09-10T08:33:56.811Z,61.70
2022-09-10T08:36:25.725Z,61.90
2022-09-10T08:38:59.847Z,61.80
2022-09-10T08:42:15.279Z,62.40
2022-09-10T08:44:54.214Z,62.50
2022-09-10T08:47:48.729Z,63.10
2022-09-10T08:50:36.278Z,63.40
2022-09-10T08:53:51.822Z,62.60
2022-09-10T08:56:23.013Z,61.60
2022-09-10T08:59:17.364Z,61.10
2022-09-10T09:01:55.390Z,60.10
2022-09-10T09:04:50.505Z,59.90
2022-09-10T09:07:20.963Z,59.40
2022-09-10T09:09:52.244Z,59.00
2022-09-10T09:12:40.554Z,59.10
2022-09-10T09:15:23.234Z,59.00
2022-09-10T09:18:28.178Z,58.40
2022-09-10T09:21:00.345Z,58.10
2022-09-10T09:24:13.866Z,57.10
2022-09-10T09:26:46.310Z,56.30
2022-09-10T09:29:27.201Z,56.40
2022-09-10T09:32:02.363Z,55.90
2022-09-10T09:34:51.598Z,55.10
2022-09-10T09:37:24.725Z,55.50
2022-09-10T09:40:15.092Z,54.80
2022-09-10T09:42:58.477Z,54.70
2022-09-10T09:45:44.410Z,54.70
2022-09-10T09:48:18.305Z,55.20
2022-09-10T09:50:50.095Z,54.90
2022-09-10T09:53:25.573Z,55.00
2022-09-10T09:55:57.752Z,55.20
2022-09-10T09:58:26.287Z,54.90
2022-09-10T10:01:09.791Z,55.00
2022-09-10T10:04:01.865Z,54.70
2022-09-10T10:06:47.744Z,54.60
2022-09-10T10:09:31.349Z,55.00
2022-09-10T10:12:04.573Z,54.80
2022-09-10T10:14:42.305Z,53.90
2022-09-10T10:17:30.513Z,53.90
2022-09-10T10:20:16.331Z,54.00
2022-09-10T10:22:46.517Z,53.70
2022-09-10T10:25:40.458Z,53.40
2022-09-10T10:28:22.928Z,52.50
2022-09-10T10:31:00.041Z,51.50
2022-09-10T10:33:33.244Z,51.10
2022-09-10T10:36:22.618Z,51.00
2022-09-10T10:39:45.346Z,50.70
2022-09-10T10:42:36.740Z,51.10
2022-09-10T10:45:31.570Z,50.60
2022-09-10T10:48:47.340Z,49.50
2022-09-10T10:51:25.947Z,48.90
2022-09-10T10:54:28.534Z,47.30
2022-09-10T10:57:10.632Z,47.20
2022-09-10T11:00:05.018Z,46.80
2022-09-10T11:03:01.654Z,47.30
2022-09-10T11:05:41.412Z,46.40
2022-09-10T11:08:19.523Z,46.80
2022-09-10T11:11:20.868Z,46.00
2022-09-10T11:14:27.456Z,45.30
2022-09-10T11:17:04.660Z,44.70
2022-09-10T11:20:10.865Z,44.50
2022-09-10T11:22:54.882Z,43.50
2022-09-10T11:25:29.975Z,42.80
2022-09-10T11:28:27.292Z,43.00
2022-09-10T11:31:05.214Z,43.80
2022-09-10T11:33:52.131Z,44.20
2022-09-10T11:36:34.900Z,43.90
2022-09-10T11:39:29.495Z,44.00
2022-09-10T11:42:00.125Z,44.20
2022-09-10T11:45:15.645Z,44.60
2022-09-10T11:47:57.170Z,44.20
2022-09-10T11:50:34.966Z,43.50
2022-09-10T11:53:07.558Z,44.40
2022-09-10T11:56:06.121Z,44.80
2022-09-10T11:59:11.643Z,44.90
2022-09-10T12:02:02.697Z,44.60
2022-09-10T12:05:03.927Z,45.00
2022-09-10T12:07:45.156Z,45.50
2022-09-10T12:11:01.764Z,45.30
2022-09-10T12:13:29.052Z,44.90
2022-09-10T12:16:05.133Z,43.90
2022-09-10T12:18:45.062Z,43.20
2022-09-10T12:21:42.892Z,43.10
2022-09-10T12:24:37.997Z,43.30
2022-09-10T12:27:07.875Z,44.00
2022-09-10T12:29:43.246Z,44.40
2022-09-10T12:32:29.445Z,44.90
2022-09-10T12:35:35.505Z,45.20
2022-09-10T12:38:46.183Z,46.20
2022-09-10T12:41:36.195Z,48.20
2022-09-10T12:44:26.865Z,49.40
2022-09-10T12:47:15.991Z,49.60
2022-09-10T12:49:57.284Z,48.60
2022-09-10T12:52:37.029Z,48.00
2022-09-10T12:55:57.849Z,47.50
2022-09-10T12:59:19.754Z,46.50
2022-09-10T13:01:52.038Z,46.40
2022-09-10T13:04:38.163Z,47.00
2022-09-10T13:07:25.993Z,47.10
2022-09-10T13:10:02.670Z,47.30
2022-09-10T13:12:33.403Z,47.20
2022-09-10T13:15:02.818Z,46.70
2022-09-10T13:18:01.346Z,46.70
2022-09-10T13:20:32.958Z,47.10
2022-09-10T13:23:04.094Z,46.90
2022-09-10T13:25:42.875Z,46.90
2022-09-10T13:28:35.013Z,46.80
2022-09-10T13:31:11.402Z,46.40
2022-09-10T13:33:53.936Z,46.30
2022-09-10T13:36:52.725Z,46.10
2022-09-10T13:40:02.879Z,45.60
2022-09-10T13:43:01.893Z,44.30
2022-09-10T13:45:41.841Z,45.00
2022-09-10T13:48:23.881Z,45.30
2022-09-10T13:51:20.168Z,45.80
2022-09-10T13:53:52.830Z,46.20
2022-09-10T13:56:29.425Z,46.90
2022-09-10T13:59:02.164Z,47.40
2022-09-10T14:01:53.181Z,47.70
2022-09-10T14:04:44.259Z,48.10
2022-09-10T14:07:29.810Z,48.50
2022-09-10T14:10:02.548Z,49.30
2022-09-10T14:12:35.803Z,49.70
2022-09-10T14:15:06.686Z,50.00
2022-09-10T14:17:51.112Z,50.00
2022-09-10T14:20:31.533Z,49.40
2022-09-10T14:23:06.733Z,49.30
2022-09-10T14:25:41.674Z,49.50
2022-09-10T14:28:28.163Z,49.50
2022-09-10T14:31:25.053Z,49.70
2022-09-10T14:33:55.535Z,49.90
2022-09-10T14:36:28.879Z,50.10
2022-09-10T14:39:22.614Z,50.80
2022-09-10T14:42:08.566Z,50.10
2022-09-10T14:44:42.895Z,49.00
2022-09-10T14:47:10.721Z,49.00
2022-09-10T14:49:47.221Z,48.70
2022-09-10T14:52:14.860Z,49.00
2022-09-10T14:54:42.270Z,49.00
2022-09-10T14:57:15.948Z,49.20
2022-09-10T14:59:46.431Z,49.30
2022-09-10T15:02:16.518Z,49.20
2022-09-10T15:04:44.032Z,49.70
2022-09-10T15:07:13.583Z,50.00
2022-09-10T15:09:41.337Z,49.20
2022-09-10T15:12:24.041Z,48.50
2022-09-10T15:14:52.378Z,48.70
2022-09-10T15:17:20.913Z,48.70
2022-09-10T15:19:48.586Z,49.00
2022-09-10T15:22:24.884Z,50.00
2022-09-10T15:25:10.879Z,50.70
2022-09-10T15:27:40.365Z,51.20
2022-09-10T15:30:08.437Z,51.30
2022-09-10T15:32:37.047Z,51.50
2022-09-10T15:35:07.878Z,51.50
2022-09-10T15:37:35.234Z,51.40
2022-09-10T15:40:04.553Z,52.30
2022-09-10T15:42:32.069Z,52.40
2022-09-10T15:44:59.316Z,52.70
2022-09-10T15:47:27.100Z,52.10
2022-09-10T15:49:54.410Z,51.80
2022-09-10T15:52:24.366Z,52.10
2022-09-10T15:54:51.580Z,52.20
2022-09-10T15:57:18.816Z,52.60
2022-09-10T15:59:47.347Z,52.50
2022-09-10T16:02:14.637Z,52.90
2022-09-10T16:04:43.144Z,53.20
2022-09-10T16:07:11.670Z,53.50
2022-09-10T16:09:39.139Z,54.10
2022-09-10T16:12:12.711Z,54.60
2022-09-10T16:14:40.009Z,55.00
2022-09-10T16:17:10.649Z,55.30
2022-09-10T16:19:38.635Z,55.50
2022-09-10T16:22:06.131Z,55.60
2022-09-10T16:24:33.365Z,55.60
2022-09-10T16:27:01.699Z,55.60
2022-09-10T16:29:29.199Z,55.60
2022-09-10T16:31:56.601Z,55.90
2022-09-10T16:34:24.584Z,54.50
2022-09-10T16:37:03.328Z,53.70
2022-09-10T16:39:30.692Z,53.10
2022-09-10T16:41:59.805Z,52.80
2022-09-10T16:44:31.360Z,52.90
2022-09-10T16:46:59.417Z,53.10
2022-09-10T16:49:27.485Z,53.10
2022-09-10T16:51:55.745Z,53.00
2022-09-10T16:54:26.746Z,53.10
2022-09-10T16:56:54.223Z,53.40
2022-09-10T16:59:24.100Z,53.50
2022-09-10T17:01:53.240Z,53.80
2022-09-10T17:04:28.231Z,54.00
2022-09-10T17:06:57.725Z,54.10
2022-09-10T17:09:25.606Z,54.90
2022-09-10T17:11:53.357Z,56.00
2022-09-10T17:14:20.670Z,56.70
2022-09-10T17:16:51.770Z,58.00
2022-09-10T17:19:26.371Z,58.70
2022-09-10T17:21:55.892Z,59.30
2022-09-10T17:24:26.960Z,59.70
2022-09-10T17:26:57.696Z,60.60
2022-09-10T17:29:26.321Z,60.70
2022-09-10T17:31:56.518Z,61.00
2022-09-10T17:34:24.740Z,61.20
2022-09-10T17:36:52.433Z,61.80
2022-09-10T17:39:20.102Z,62.00
2022-09-10T17:41:47.859Z,62.00
2022-09-10T17:44:16.736Z,62.30
2022-09-10T17:46:45.095Z,62.30
2022-09-10T17:49:17.140Z,62.50
2022-09-10T17:51:44.863Z,62.60
2022-09-10T17:54:13.470Z,62.60
2022-09-10T17:56:41.928Z,62.60
2022-09-10T17:59:16.379Z,62.30
2022-09-10T18:01:43.736Z,62.40
2022-09-10T18:04:15.834Z,62.20
2022-09-10T18:06:46.797Z,61.80
2022-09-10T18:09:17.444Z,61.70
2022-09-10T18:11:44.860Z,61.30
2022-09-10T18:14:21.613Z,61.10
2022-09-10T18:16:49.522Z,61.30
2022-09-10T18:19:18.035Z,61.10
2022-09-10T18:21:48.654Z,61.20
2022-09-10T18:24:22.556Z,61.50
2022-09-10T18:26:53.806Z,61.70
2022-09-10T18:29:27.889Z,61.30
2022-09-10T18:31:59.178Z,61.30
2022-09-10T18:34:29.726Z,61.40
2022-09-10T18:37:06.602Z,61.80
2022-09-10T18:39:34.387Z,62.10
2022-09-10T18:42:02.971Z,62.30
2022-09-10T18:44:33.444Z,62.50
2022-09-10T18:47:01.083Z,62.60
2022-09-10T18:49:29.296Z,62.60
2022-09-10T18:51:57.418Z,62.90
2022-09-10T18:54:28.278Z,63.00
2022-09-10T18:56:59.068Z,62.30
2022-09-10T18:59:27.132Z,61.30
2022-09-10T19:01:56.066Z,61.00
2022-09-10T19:04:27.470Z,60.80
2022-09-10T19:06:57.703Z,60.80
2022-09-10T19:09:30.325Z,60.80
2022-09-10T19:12:00.490Z,60.70
2022-09-10T19:14:31.935Z,60.40
2022-09-10T19:17:01.285Z,60.40
2022-09-10T19:19:36.385Z,60.20
2022-09-10T19:22:11.011Z,60.30
2022-09-10T19:24:53.937Z,60.50
2022-09-10T19:27:22.432Z,60.30
2022-09-10T19:29:50.403Z,60.40
2022-09-10T19:32:20.055Z,60.60
2022-09-10T19:34:51.857Z,60.60
2022-09-10T19:37:19.935Z,60.60
2022-09-10T19:39:47.735Z,60.40
2022-09-10T19:42:17.268Z,60.70
2022-09-10T19:44:44.642Z,60.80
2022-09-10T19:47:12.034Z,60.90
2022-09-10T19:49:39.325Z,60.90
2022-09-10T19:52:06.704Z,60.90
2022-09-10T19:54:35.183Z,61.20
2022-09-10T19:57:02.708Z,61.50
2022-09-10T19:59:30.052Z,61.80
2022-09-10T20:01:57.792Z,61.80
2022-09-10T20:04:25.930Z,62.20
2022-09-10T20:06:53.952Z,62.20
2022-09-10T20:09:21.280Z,62.20
2022-09-10T20:11:49.075Z,62.30
2022-09-10T20:14:16.316Z,62.20
2022-09-10T20:16:45.693Z,62.00
2022-09-10T20:19:18.346Z,62.00
2022-09-10T20:21:47.747Z,62.10
2022-09-10T20:24:16.416Z,62.00
2022-09-10T20:26:49.024Z,62.10
2022-09-10T20:29:18.584Z,62.10
2022-09-10T20:31:49.870Z,62.30
2022-09-10T20:34:22.475Z,62.50
2022-09-10T20:36:51.736Z,62.50
2022-09-10T20:39:22.251Z,62.50
2022-09-10T20:41:56.424Z,62.40
2022-09-10T20:44:24.560Z,62.50
2022-09-10T20:46:52.272Z,62.70
2022-09-10T20:49:19.830Z,63.00
2022-09-10T20:51:47.358Z,63.10
2022-09-10T20:54:18.332Z,63.20
2022-09-10T20:56:46.768Z,63.30
2022-09-10T20:59:16.540Z,63.50
2022-09-10T21:01:45.977Z,63.40
2022-09-10T21:04:14.267Z,63.30
2022-09-10T21:06:46.356Z,63.30
2022-09-10T21:09:14.093Z,63.30
2022-09-10T21:11:41.508Z,63.40
2022-09-10T21:14:09.614Z,63.50
2022-09-10T21:16:43.328Z,63.30
2022-09-10T21:19:16.813Z,63.30
2022-09-10T21:21:46.615Z,63.40
2022-09-10T21:24:22.601Z,63.50
2022-09-10T21:26:50.789Z,63.90
2022-09-10T21:29:21.423Z,64.20
2022-09-10T21:31:50.749Z,64.00
2022-09-10T21:34:18.020Z,64.30
2022-09-10T21:36:45.521Z,64.30
2022-09-10T21:39:17.259Z,64.70
2022-09-10T21:41:48.580Z,64.60
2022-09-10T21:44:20.022Z,64.80
2022-09-10T21:46:49.430Z,64.90
2022-09-10T21:49:18.466Z,65.00
2022-09-10T21:51:46.216Z,65.20
2022-09-10T21:54:21.083Z,65.30
2022-09-10T21:56:50.424Z,64.90
2022-09-10T21:59:18.757Z,65.00
2022-09-10T22:01:47.576Z,64.90
2022-09-10T22:04:20.014Z,64.90
2022-09-10T22:06:48.964Z,65.10
2022-09-10T22:09:17.598Z,65.80
2022-09-10T22:11:50.201Z,65.30
2022-09-10T22:14:25.599Z,65.60
2022-09-10T22:16:53.512Z,65.80
2022-09-10T22:19:25.327Z,66.10
2022-09-10T22:21:54.440Z,66.20
2022-09-10T22:24:22.353Z,66.40
2022-09-10T22:26:50.385Z,66.40
2022-09-10T22:29:20.519Z,66.60
2022-09-10T22:31:49.104Z,66.70
2022-09-10T22:34:18.236Z,66.70
2022-09-10T22:36:47.184Z,66.80
2022-09-10T22:39:21.375Z,66.80
2022-09-10T22:41:51.167Z,66.80
2022-09-10T22:44:19.384Z,66.90
2022-09-10T22:46:47.032Z,67.00
2022-09-10T22:49:16.104Z,67.00
2022-09-10T22:51:44.168Z,67.20
2022-09-10T22:54:11.870Z,67.10
2022-09-10T22:56:39.930Z,67.20
2022-09-10T22:59:11.313Z,67.30
2022-09-10T23:01:39.443Z,67.20
2022-09-10T23:04:08.966Z,67.90
2022-09-10T23:06:39.049Z,67.30
2022-09-10T23:09:14.192Z,67.30
2022-09-10T23:11:42.551Z,67.40
2022-09-10T23:14:15.856Z,67.50
2022-09-10T23:16:49.859Z,67.50
2022-09-10T23:19:23.045Z,67.50
2022-09-10T23:21:53.971Z,67.80
2022-09-10T23:24:24.857Z,67.80
2022-09-10T23:26:53.969Z,68.00
2022-09-10T23:29:22.580Z,68.10
2022-09-10T23:31:54.367Z,68.30
2022-09-10T23:34:22.492Z,68.40
2022-09-10T23:36:51.239Z,68.50
2022-09-10T23:39:23.852Z,68.80
2022-09-10T23:41:55.262Z,69.00
2022-09-10T23:44:22.959Z,69.10
2022-09-10T23:46:50.905Z,69.10
2022-09-10T23:49:23.823Z,69.20
2022-09-10T23:51:51.673Z,69.30
2022-09-10T23:54:18.970Z,69.40
2022-09-10T23:56:46.180Z,69.60
2022-09-10T23:59:13.535Z,69.60
